Terminal Aerodrome Forecast
Issued by NWS

Home | Current Version | Previous Version | Text Only | Print | Product List | Glossary On
Versions: 1 2 3 4 5 6 7 8 9 10 11 12 13 14 15 16 17 18 19 20 21 22
000
FTUS46 KLOX 011700 RRA
TAFVNY
TAF
KVNY 011742Z 0118/0218 VRB04KT P6SM VCSH SCT025 OVC060
     FM012000 15006KT P6SM VCSH BKN020 OVC040
     FM020300 VRB03KT P6SM VCSH BKN025 OVC050
     FM020800 VRB03KT P6SM SCT025 BKN070
     FM021200 VRB03KT P6SM -SHRA BKN020 OVC060
     FM021600 14007KT P6SM VCSH BKN025 OVC050=

USA.gov is the U.S. government's official web portal to all federal, state and local government web resources and services.